Strona główna
METAR-TAF:

METAR-TAF

Lotnisko :

Łódź, Polska

Port lotniczy Łódź-Lublinek

Szerokość geograficzna: 51-43-19N, Długość geograficzna: 019-23-53E, wysokość: 184 m

Aktualna obserwacja pogody

Raport powstał 29 minut temu, godzina 11:00 UTC
Wiatr 9 kt od południowy zachód
Temperatura 20°C
Wilgotność 64%
Ciśnienie 1023 hPa
Widzialność 10 km lub więcej
Brak chmur poniżej 1500 m i brak chmur cumulonimbus

METAR: EPLL 171100Z 23009KT CAVOK 20/13 Q1023

czas: 13:29 (11:29 UTC)

Prognoza

Raport powstał 5 godziny i 59 minut temu, godzina 05:30 UTC
Prognoza ważna od 17 godzina 06 UTC do 18 godzina 06 UTC
Wiatr 4 kt od południowo-południowy zachód
Widzialność: 3000 m
zamglenie
Stopniowe zmiany
od 17 godzina 06 UTC do 17 godzina 08 UTC
Widzialność 10 km lub więcej
Brak chmur poniżej 1500 m i brak chmur cumulonimbus
Prawdopodobieństwo 40%
od 17 godzina 20 UTC do 18 godzina 06 UTC
Widzialność: 3000 m
zamglenie

TAF: EPLL 170530Z 1706/1806 20004KT 3000 BR NSC BECMG 1706/1708 CAVOK PROB40 1720/1806 3000 BR

Obserwacja i prognoza pogody dla ponad 4000 lotnisk (raport METAR i TAF).

Dostępne stacje oznaczono żółtymi i czerwonymi punktami na mapie.

Najedź kursorem aby zobaczyć nazwę stacji.

Kliknij aby zobaczyć obserwacje i prognozy pogody.

Aby zmienić mapę: kliknij na zielony przycisk z czarnym krzyżykiem, aby powiększyć; na zielony przycisk z myślnikiem, aby pomniejszyć; na zielone strzałki, aby przejść do map sąsiednich.


METAR-TAF: